Time;durP1;ratioP1;P1;durP2;ratioP2;P2;SDS_P1;SDS_P2;PMS_P1;PMS_P2;Temp;Humidity;BMP_temperature;BMP_pressure;BME280_temperature;BME280_humidity;BME280_pressure;Samples;Min_cycle;Max_cycle;Signal;HPM_P1;HPM_P2
2024/02/29 00:00:12;;;;;;;2.42;1.27;;;6.10;92.50;;;;;;5057271;28;20031;-71
2024/02/29 00:02:39;;;;;;;1.95;1.20;;;6.10;92.60;;;;;;5040568;28;20052;-72
2024/02/29 00:05:07;;;;;;;1.90;1.35;;;6.10;92.60;;;;;;5057335;28;20067;-71
2024/02/29 00:07:32;;;;;;;2.08;1.30;;;6.10;92.60;;;;;;5073748;28;20409;-70
2024/02/29 00:09:59;;;;;;;3.03;1.70;;;6.10;92.60;;;;;;5092014;28;20040;-71
2024/02/29 00:12:24;;;;;;;2.17;1.27;;;6.10;92.60;;;;;;5040651;28;20036;-70
2024/02/29 00:14:51;;;;;;;3.97;1.70;;;6.00;92.50;;;;;;5057202;28;20036;-71
2024/02/29 00:17:17;;;;;;;2.83;1.52;;;6.00;92.50;;;;;;5058300;28;20122;-71
2024/02/29 00:19:43;;;;;;;3.53;1.70;;;6.00;92.50;;;;;;5077340;28;20134;-72
2024/02/29 00:22:09;;;;;;;2.85;1.50;;;6.00;92.50;;;;;;5060719;28;20036;-71
2024/02/29 00:24:35;;;;;;;1.42;1.10;;;6.10;92.50;;;;;;5060779;28;20052;-72
2024/02/29 00:27:01;;;;;;;2.35;1.40;;;6.00;92.50;;;;;;5060497;28;20050;-72
2024/02/29 00:29:28;;;;;;;2.67;1.50;;;6.00;92.50;;;;;;5058981;28;20048;-71
2024/02/29 00:32:00;;;;;;;2.78;1.67;;;6.20;92.50;;;;;;5060235;28;20046;-71
2024/02/29 00:34:27;;;;;;;3.92;1.63;;;6.10;92.50;;;;;;5078072;28;20133;-72
2024/02/29 00:36:53;;;;;;;1.88;1.23;;;6.10;92.50;;;;;;5060148;28;20047;-72
2024/02/29 00:39:18;;;;;;;3.50;1.83;;;6.00;92.40;;;;;;5094915;28;20044;-72
2024/02/29 00:41:44;;;;;;;2.83;1.60;;;6.10;92.40;;;;;;5060798;28;20101;-71
2024/02/29 00:44:10;;;;;;;3.83;1.73;;;6.10;92.40;;;;;;5077305;28;20040;-71
2024/02/29 00:46:37;;;;;;;2.92;1.30;;;6.10;92.40;;;;;;5043836;28;20032;-71
2024/02/29 00:49:03;;;;;;;3.33;1.63;;;6.10;92.30;;;;;;5094799;28;20059;-70
2024/02/29 00:51:29;;;;;;;2.97;1.60;;;6.20;92.30;;;;;;5060100;28;20067;-70
2024/02/29 00:53:54;;;;;;;2.72;1.40;;;6.20;92.20;;;;;;5076751;28;20036;-71
2024/02/29 00:56:20;;;;;;;3.28;1.38;;;6.10;92.20;;;;;;5059800;28;20490;-71
2024/02/29 00:58:46;;;;;;;2.90;1.45;;;6.20;92.20;;;;;;5076802;28;20504;-71
2024/02/29 01:01:12;;;;;;;3.35;1.25;;;6.30;92.20;;;;;;5076395;28;20405;-71
2024/02/29 01:03:37;;;;;;;2.30;1.30;;;6.30;92.10;;;;;;5076660;28;20043;-71
2024/02/29 01:06:04;;;;;;;3.72;1.70;;;6.20;92.10;;;;;;5076280;28;20043;-71
2024/02/29 01:08:30;;;;;;;2.70;1.50;;;6.30;92.10;;;;;;5094513;28;20044;-71
2024/02/29 01:10:56;;;;;;;2.47;1.40;;;6.30;92.10;;;;;;5094416;28;20424;-72
2024/02/29 01:13:22;;;;;;;4.43;1.50;;;6.30;92.00;;;;;;5059280;28;20056;-72
2024/02/29 01:15:49;;;;;;;5.13;1.48;;;6.30;92.00;;;;;;5042792;28;20043;-72
2024/02/29 01:18:15;;;;;;;1.77;1.30;;;6.30;92.00;;;;;;5076736;28;20036;-71
2024/02/29 01:20:41;;;;;;;3.55;1.70;;;6.30;92.00;;;;;;5094018;28;20036;-71
2024/02/29 01:23:06;;;;;;;3.33;1.60;;;6.30;91.90;;;;;;5074999;28;20036;-72
2024/02/29 01:25:32;;;;;;;3.55;1.67;;;6.40;91.90;;;;;;5040761;28;20055;-71
2024/02/29 01:27:58;;;;;;;2.50;1.50;;;6.40;91.90;;;;;;5075340;28;20062;-72
2024/02/29 01:30:23;;;;;;;3.28;1.67;;;6.50;91.90;;;;;;5058715;28;20087;-71
2024/02/29 01:32:49;;;;;;;3.20;1.60;;;6.40;91.80;;;;;;5042536;28;20048;-71
2024/02/29 01:35:15;;;;;;;3.63;1.50;;;6.50;91.80;;;;;;5076058;28;20035;-71
2024/02/29 01:37:41;;;;;;;2.95;1.73;;;6.40;91.80;;;;;;5093721;28;20032;-71
2024/02/29 01:40:08;;;;;;;2.90;1.48;;;6.40;91.80;;;;;;5074493;28;20175;-71
2024/02/29 01:42:33;;;;;;;2.88;1.50;;;6.50;91.80;;;;;;5093792;28;20040;-71
2024/02/29 01:44:59;;;;;;;3.17;1.60;;;6.50;91.80;;;;;;5075442;28;20181;-71
2024/02/29 01:47:26;;;;;;;2.90;1.60;;;6.50;91.80;;;;;;5074541;28;20132;-72
2024/02/29 01:49:56;;;;;;;3.63;1.55;;;6.50;91.80;;;;;;5094103;28;20071;-71
2024/02/29 01:52:25;;;;;;;2.95;1.55;;;6.40;91.80;;;;;;5093534;28;20036;-71
2024/02/29 01:54:50;;;;;;;2.78;1.50;;;6.50;91.80;;;;;;5093727;28;20036;-71
2024/02/29 01:57:16;;;;;;;3.88;1.70;;;6.50;91.80;;;;;;5093752;28;20043;-71
2024/02/29 01:59:45;;;;;;;3.50;1.73;;;6.50;91.80;;;;;;5074566;28;20036;-71
2024/02/29 02:02:11;;;;;;;3.13;1.50;;;6.60;92.10;;;;;;5076333;28;20048;-71
2024/02/29 02:04:37;;;;;;;3.50;1.60;;;6.50;91.80;;;;;;5093424;28;20048;-71
2024/02/29 02:07:04;;;;;;;3.75;1.80;;;6.60;91.80;;;;;;5058611;28;20036;-71
2024/02/29 02:09:30;;;;;;;4.63;1.83;;;6.50;91.70;;;;;;5093266;28;20044;-71
2024/02/29 02:11:56;;;;;;;3.92;1.73;;;6.50;91.70;;;;;;5093239;28;20096;-73
2024/02/29 02:14:23;;;;;;;3.65;1.90;;;6.50;91.70;;;;;;5093324;28;20380;-71
2024/02/29 02:16:49;;;;;;;6.57;2.33;;;6.60;91.70;;;;;;5093150;28;20119;-71
2024/02/29 02:19:16;;;;;;;3.60;1.80;;;6.50;91.70;;;;;;5093628;28;20429;-71
2024/02/29 02:21:43;;;;;;;3.38;1.75;;;6.50;91.70;;;;;;5073651;28;20094;-73
2024/02/29 02:24:09;;;;;;;3.30;1.60;;;6.50;91.70;;;;;;5075006;28;20047;-71
2024/02/29 02:26:35;;;;;;;3.33;1.90;;;6.50;91.70;;;;;;5093058;28;20067;-71
2024/02/29 02:29:03;;;;;;;4.00;2.10;;;6.50;91.70;;;;;;5058019;28;20089;-71
2024/02/29 02:31:29;;;;;;;3.53;1.77;;;6.50;91.60;;;;;;5074354;28;20036;-72
2024/02/29 02:33:56;;;;;;;4.53;2.05;;;6.40;91.90;;;;;;5092993;28;20476;-71
2024/02/29 02:36:22;;;;;;;3.78;2.00;;;6.50;91.60;;;;;;5075170;28;20035;-71
2024/02/29 02:38:48;;;;;;;4.43;2.10;;;6.50;91.60;;;;;;5092855;28;20375;-71
2024/02/29 02:41:14;;;;;;;3.85;1.90;;;6.50;91.60;;;;;;5092562;28;20058;-72
2024/02/29 02:43:39;;;;;;;4.13;1.85;;;6.50;91.60;;;;;;5093156;28;20036;-71
2024/02/29 02:46:05;;;;;;;3.78;1.80;;;6.50;91.60;;;;;;5075054;28;20044;-71
2024/02/29 02:48:31;;;;;;;4.55;1.98;;;6.50;91.60;;;;;;5092697;28;20044;-72
2024/02/29 02:50:56;;;;;;;4.18;2.00;;;6.50;91.60;;;;;;5093197;28;20043;-71
2024/02/29 02:53:22;;;;;;;3.90;2.00;;;6.40;91.50;;;;;;5092725;28;20396;-71
2024/02/29 02:55:48;;;;;;;5.78;2.10;;;6.50;91.60;;;;;;5092793;28;20131;-71
2024/02/29 02:58:14;;;;;;;4.18;2.00;;;6.50;91.50;;;;;;5092521;28;20112;-71
2024/02/29 03:00:39;;;;;;;3.42;1.83;;;6.50;91.50;;;;;;5092686;28;20032;-71
2024/02/29 03:03:05;;;;;;;4.07;1.90;;;6.50;91.50;;;;;;5092569;28;20054;-71
2024/02/29 03:05:31;;;;;;;4.28;2.13;;;6.50;91.50;;;;;;5092453;28;20039;-72
2024/02/29 03:07:58;;;;;;;4.18;2.10;;;6.50;91.50;;;;;;5092610;28;20067;-71
2024/02/29 03:10:23;;;;;;;5.20;2.00;;;6.50;91.50;;;;;;5092146;28;20047;-71
2024/02/29 03:12:49;;;;;;;4.65;2.08;;;6.50;91.50;;;;;;5092193;28;20048;-72
2024/02/29 03:15:15;;;;;;;5.10;2.38;;;6.50;91.50;;;;;;5092922;28;20036;-71
2024/02/29 03:17:41;;;;;;;3.25;1.52;;;6.50;91.70;;;;;;5074594;28;20055;-71
2024/02/29 03:20:12;;;;;;;3.65;1.70;;;6.50;91.40;;;;;;5092375;28;20097;-71
2024/02/29 03:22:39;;;;;;;4.13;1.88;;;6.50;91.40;;;;;;5092626;28;20523;-73
2024/02/29 03:25:05;;;;;;;2.63;1.50;;;6.50;91.40;;;;;;5072931;28;20054;-71
2024/02/29 03:27:31;;;;;;;3.85;1.80;;;6.50;91.40;;;;;;5092522;28;20127;-71
2024/02/29 03:29:59;;;;;;;4.38;2.13;;;6.50;91.40;;;;;;5092040;28;20044;-71
2024/02/29 03:32:25;;;;;;;4.40;2.20;;;6.60;91.50;;;;;;5092040;28;20070;-71
2024/02/29 03:34:51;;;;;;;2.95;1.75;;;6.60;91.50;;;;;;5073842;28;20043;-72
2024/02/29 03:37:16;;;;;;;4.00;1.90;;;6.60;91.40;;;;;;5092065;28;20397;-71
2024/02/29 03:39:42;;;;;;;2.95;1.75;;;6.60;91.40;;;;;;5092312;28;20032;-71
2024/02/29 03:42:08;;;;;;;2.95;1.60;;;6.60;91.40;;;;;;5092332;28;20039;-71
2024/02/29 03:44:34;;;;;;;3.00;1.73;;;6.60;91.40;;;;;;5091950;28;20036;-71
2024/02/29 03:46:59;;;;;;;2.90;1.77;;;6.60;91.40;;;;;;5091835;28;20513;-71
2024/02/29 03:49:25;;;;;;;3.97;2.00;;;6.60;91.40;;;;;;5091907;28;20051;-71
2024/02/29 03:51:51;;;;;;;5.15;2.25;;;6.60;91.40;;;;;;5092413;28;20044;-71
2024/02/29 03:54:16;;;;;;;5.00;2.30;;;6.60;91.40;;;;;;5096048;28;20040;-71
2024/02/29 03:56:42;;;;;;;4.57;2.17;;;6.60;91.40;;;;;;5095477;28;20036;-71
2024/02/29 03:59:08;;;;;;;3.85;1.77;;;6.70;91.40;;;;;;5095931;28;20397;-72
2024/02/29 04:01:34;;;;;;;4.45;2.10;;;6.60;91.40;;;;;;5095455;28;20035;-71
2024/02/29 04:03:59;;;;;;;4.75;1.77;;;6.70;91.40;;;;;;5077295;28;20044;-71
2024/02/29 04:06:26;;;;;;;3.17;1.65;;;6.70;91.40;;;;;;5095513;28;20044;-71
2024/02/29 04:08:51;;;;;;;4.95;2.30;;;6.70;91.40;;;;;;5095833;28;20040;-71
2024/02/29 04:11:17;;;;;;;3.65;1.90;;;6.60;91.40;;;;;;5077370;28;20055;-71
2024/02/29 04:13:44;;;;;;;3.63;1.88;;;6.60;91.40;;;;;;5094977;28;20044;-71
2024/02/29 04:16:11;;;;;;;4.30;2.10;;;6.70;91.40;;;;;;5077512;28;20040;-71
2024/02/29 04:18:36;;;;;;;4.13;1.95;;;6.70;91.40;;;;;;5076918;28;20065;-71
2024/02/29 04:21:02;;;;;;;3.10;1.50;;;6.70;91.40;;;;;;5095484;28;20040;-71
2024/02/29 04:23:28;;;;;;;4.25;2.00;;;6.70;91.50;;;;;;5095400;28;20052;-71
2024/02/29 04:25:54;;;;;;;3.10;1.50;;;6.70;91.50;;;;;;5076933;28;20132;-72
2024/02/29 04:28:19;;;;;;;3.25;1.50;;;6.60;91.40;;;;;;5095393;28;20060;-71
2024/02/29 04:30:45;;;;;;;3.35;1.50;;;6.70;91.50;;;;;;5094874;28;20043;-71
2024/02/29 04:33:12;;;;;;;3.03;1.63;;;6.70;91.50;;;;;;5095351;28;20048;-71
2024/02/29 04:35:38;;;;;;;5.32;2.08;;;6.60;91.40;;;;;;5094855;28;20090;-71
2024/02/29 04:38:04;;;;;;;3.97;2.05;;;6.60;91.40;;;;;;5095274;28;20416;-71
2024/02/29 04:40:29;;;;;;;4.55;1.77;;;6.70;91.50;;;;;;5094942;28;21225;-71
2024/02/29 04:42:55;;;;;;;3.53;1.70;;;6.70;91.50;;;;;;5077153;28;20040;-72
2024/02/29 04:45:25;;;;;;;4.65;1.90;;;6.60;91.50;;;;;;5074699;28;20044;-71
2024/02/29 04:47:52;;;;;;;3.78;1.88;;;6.60;91.50;;;;;;5058383;28;20032;-71
2024/02/29 04:50:18;;;;;;;3.97;1.90;;;6.70;91.60;;;;;;5094979;28;20055;-71
2024/02/29 04:52:45;;;;;;;2.58;1.50;;;6.60;91.50;;;;;;5075673;28;20470;-71
2024/02/29 04:55:10;;;;;;;3.67;1.73;;;6.50;91.60;;;;;;5076535;28;20028;-71
2024/02/29 04:57:36;;;;;;;2.03;1.27;;;6.60;91.60;;;;;;5094470;28;20043;-72
2024/02/29 05:00:03;;;;;;;3.15;1.63;;;6.60;91.70;;;;;;5094970;28;20047;-73
2024/02/29 05:02:28;;;;;;;3.35;1.63;;;6.50;91.70;;;;;;5095063;28;20044;-71
2024/02/29 05:04:54;;;;;;;3.80;1.80;;;6.50;91.70;;;;;;5076891;28;20051;-71
2024/02/29 05:07:21;;;;;;;2.42;1.45;;;6.40;91.70;;;;;;5076876;28;20051;-71
2024/02/29 05:09:47;;;;;;;3.78;1.70;;;6.50;91.70;;;;;;5094465;28;20035;-71
2024/02/29 05:12:12;;;;;;;3.30;1.83;;;6.50;91.70;;;;;;5094408;28;20044;-71
2024/02/29 05:14:38;;;;;;;3.03;1.65;;;6.50;91.80;;;;;;5094568;28;20115;-71
2024/02/29 05:17:04;;;;;;;4.28;1.77;;;6.50;91.80;;;;;;5059710;28;20417;-73
2024/02/29 05:19:30;;;;;;;3.55;1.55;;;6.50;91.80;;;;;;5076086;28;20043;-71
2024/02/29 05:21:55;;;;;;;3.47;1.65;;;6.40;91.80;;;;;;5076468;28;20036;-71
2024/02/29 05:24:21;;;;;;;2.65;1.50;;;6.40;91.80;;;;;;5094853;28;20059;-71
2024/02/29 05:26:48;;;;;;;2.80;1.50;;;6.40;91.80;;;;;;5094389;28;20389;-71
2024/02/29 05:29:14;;;;;;;3.70;1.65;;;6.40;91.90;;;;;;5094459;28;20051;-71
2024/02/29 05:31:40;;;;;;;3.78;1.75;;;6.50;91.90;;;;;;5074172;28;20036;-71
2024/02/29 05:34:05;;;;;;;3.08;1.45;;;6.50;91.90;;;;;;5094769;28;20052;-72
2024/02/29 05:36:31;;;;;;;4.00;1.63;;;6.40;91.90;;;;;;5076849;28;20040;-72
2024/02/29 05:38:57;;;;;;;3.70;1.63;;;6.40;91.90;;;;;;5094713;28;20063;-72
2024/02/29 05:41:23;;;;;;;3.22;1.50;;;6.50;91.90;;;;;;5094334;28;20036;-71
2024/02/29 05:43:50;;;;;;;3.80;1.63;;;6.50;92.00;;;;;;5094297;28;20071;-71
2024/02/29 05:46:15;;;;;;;4.78;2.25;;;6.50;92.00;;;;;;5093993;28;20123;-71
2024/02/29 05:48:41;;;;;;;2.83;1.42;;;6.50;92.00;;;;;;5093974;28;20131;-71
2024/02/29 05:51:08;;;;;;;3.25;1.50;;;6.50;91.90;;;;;;5093803;28;20048;-71
2024/02/29 05:53:33;;;;;;;3.53;1.30;;;6.50;92.00;;;;;;5075589;28;20569;-72
2024/02/29 05:55:59;;;;;;;2.92;1.60;;;6.50;92.00;;;;;;5094378;28;20123;-71
2024/02/29 05:58:30;;;;;;;2.90;1.27;;;6.50;92.00;;;;;;5075594;28;20472;-71
2024/02/29 06:00:56;;;;;;;3.17;1.58;;;6.50;92.00;;;;;;5094138;28;20522;-72
2024/02/29 06:03:22;;;;;;;3.08;1.60;;;6.50;92.00;;;;;;5094256;28;20489;-71
2024/02/29 06:05:48;;;;;;;3.63;1.27;;;6.50;92.00;;;;;;5093862;28;20078;-71
2024/02/29 06:08:14;;;;;;;2.15;1.20;;;6.50;92.00;;;;;;5094191;28;20047;-71
2024/02/29 06:10:41;;;;;;;3.08;1.52;;;6.60;92.00;;;;;;5075638;28;20093;-71
2024/02/29 06:13:07;;;;;;;2.58;1.30;;;6.60;92.00;;;;;;5093958;28;20428;-71
2024/02/29 06:15:33;;;;;;;4.53;1.60;;;6.60;92.00;;;;;;5093070;28;20093;-71
2024/02/29 06:17:58;;;;;;;3.00;1.25;;;6.60;92.00;;;;;;5093673;28;20040;-71
2024/02/29 06:20:24;;;;;;;2.88;1.40;;;6.60;92.00;;;;;;5093505;28;20497;-71
2024/02/29 06:22:50;;;;;;;3.03;1.50;;;6.70;92.00;;;;;;5093499;28;20489;-71
2024/02/29 06:25:17;;;;;;;2.97;1.70;;;6.70;92.00;;;;;;5093720;28;20087;-71
2024/02/29 06:27:43;;;;;;;2.95;1.48;;;6.70;92.00;;;;;;5093912;28;20040;-71
2024/02/29 06:30:09;;;;;;;2.90;1.30;;;6.70;92.00;;;;;;5074196;28;20036;-72
2024/02/29 06:32:35;;;;;;;3.50;1.40;;;6.70;92.00;;;;;;5093447;28;20067;-72
2024/02/29 06:35:01;;;;;;;2.90;1.65;;;6.70;92.00;;;;;;5072846;28;20536;-72
2024/02/29 06:37:26;;;;;;;2.92;1.23;;;6.70;92.00;;;;;;5093190;28;20040;-71
2024/02/29 06:39:57;;;;;;;2.78;1.42;;;6.70;92.00;;;;;;5092923;28;20028;-71
2024/02/29 06:42:22;;;;;;;4.07;1.70;;;6.80;92.00;;;;;;5093429;28;20066;-72
2024/02/29 06:44:48;;;;;;;3.08;1.58;;;6.80;92.00;;;;;;5058234;28;20040;-71
2024/02/29 06:47:14;;;;;;;3.22;1.50;;;6.80;92.00;;;;;;5093295;28;20048;-71
2024/02/29 06:49:39;;;;;;;2.83;1.50;;;6.80;92.00;;;;;;5092877;28;20047;-72
2024/02/29 06:52:05;;;;;;;3.72;1.58;;;6.80;91.90;;;;;;5092793;28;20076;-72
2024/02/29 06:54:31;;;;;;;2.33;1.25;;;6.90;92.00;;;;;;5093020;28;20123;-72
2024/02/29 06:56:56;;;;;;;3.90;1.67;;;6.90;92.00;;;;;;5073660;28;20040;-73
2024/02/29 06:59:22;;;;;;;2.80;1.58;;;6.90;92.00;;;;;;5092891;28;20039;-73
2024/02/29 07:01:48;;;;;;;3.05;1.40;;;6.90;92.00;;;;;;5092882;28;20542;-74
2024/02/29 07:04:13;;;;;;;2.97;1.50;;;6.90;92.00;;;;;;5058049;28;20052;-73
2024/02/29 07:06:39;;;;;;;3.95;1.60;;;7.00;92.00;;;;;;5092568;28;20071;-73
2024/02/29 07:09:05;;;;;;;3.83;1.80;;;7.00;92.00;;;;;;5092855;28;20071;-73
2024/02/29 07:11:30;;;;;;;3.10;1.58;;;6.90;91.90;;;;;;5057499;28;20044;-73
2024/02/29 07:13:57;;;;;;;2.80;1.63;;;7.00;91.90;;;;;;5074360;28;20040;-72
2024/02/29 07:16:23;;;;;;;3.63;1.80;;;7.00;91.90;;;;;;5072937;28;20505;-74
2024/02/29 07:18:48;;;;;;;3.28;1.58;;;7.00;91.90;;;;;;5057557;28;20063;-74
2024/02/29 07:21:14;;;;;;;2.63;1.40;;;7.00;91.90;;;;;;5058206;28;20089;-73
2024/02/29 07:23:43;;;;;;;3.03;1.42;;;7.00;91.90;;;;;;5056435;28;20047;-75
2024/02/29 07:26:10;;;;;;;2.13;1.30;;;7.10;92.00;;;;;;5091996;28;20047;-74
2024/02/29 07:28:35;;;;;;;4.43;1.60;;;7.00;91.90;;;;;;5092623;28;20055;-73
2024/02/29 07:31:05;;;;;;;3.38;1.40;;;7.00;92.20;;;;;;5056769;28;20410;-76
2024/02/29 07:33:43;;;;;;;3.30;1.58;;;7.10;92.00;;;;;;5074661;28;20516;-75
2024/02/29 07:36:19;;;;;;;2.55;1.48;;;7.10;91.90;;;;;;4997361;28;20048;-75
2024/02/29 07:38:46;;;;;;;2.70;1.17;;;7.10;91.90;;;;;;4998575;28;20045;-75
2024/02/29 07:41:12;;;;;;;3.00;1.70;;;7.10;91.90;;;;;;4981270;28;20179;-75
2024/02/29 07:43:57;;;;;;;2.28;1.13;;;7.10;91.90;;;;;;4997143;28;20132;-75
2024/02/29 07:46:22;;;;;;;1.92;0.98;;;7.20;91.90;;;;;;4983550;28;20072;-75
2024/02/29 07:48:48;;;;;;;2.55;1.20;;;7.20;91.90;;;;;;4980997;28;20475;-73
2024/02/29 07:51:18;;;;;;;1.52;1.15;;;7.30;91.90;;;;;;4997108;28;20443;-73
2024/02/29 07:53:44;;;;;;;2.15;1.30;;;7.30;91.90;;;;;;5013485;28;20046;-72
2024/02/29 07:56:10;;;;;;;2.47;1.33;;;7.30;91.90;;;;;;5029932;28;20064;-73
2024/02/29 07:58:35;;;;;;;3.08;1.40;;;7.30;91.90;;;;;;4997056;28;20037;-72
2024/02/29 08:01:02;;;;;;;2.17;1.17;;;7.40;91.90;;;;;;5029932;28;20455;-72
2024/02/29 08:03:28;;;;;;;2.58;1.42;;;7.30;91.90;;;;;;4995430;28;20046;-74
2024/02/29 08:05:57;;;;;;;2.50;1.33;;;7.40;91.90;;;;;;5016562;28;20495;-75
2024/02/29 08:08:25;;;;;;;3.33;1.30;;;7.40;91.90;;;;;;5029422;28;20095;-75
2024/02/29 08:10:50;;;;;;;2.00;1.25;;;7.40;91.90;;;;;;5013126;28;20041;-75
2024/02/29 08:13:18;;;;;;;2.67;1.27;;;7.50;91.90;;;;;;5013019;28;20075;-76
2024/02/29 08:15:47;;;;;;;1.75;1.10;;;7.50;91.90;;;;;;4970616;28;20043;-74
2024/02/29 08:18:41;;;;;;;2.40;1.10;;;7.50;91.90;;;;;;4934828;29;20071;-74
2024/02/29 08:21:13;;;;;;;1.75;0.90;;;7.70;92.00;;;;;;4897486;29;20127;-74
2024/02/29 08:23:51;;;;;;;2.15;1.20;;;7.60;91.90;;;;;;4910704;29;20044;-73
2024/02/29 08:26:17;;;;;;;1.73;1.02;;;7.60;91.90;;;;;;4912928;29;20514;-73
2024/02/29 08:28:43;;;;;;;2.50;1.33;;;7.60;91.90;;;;;;4913069;29;20048;-73
2024/02/29 08:31:09;;;;;;;2.22;1.20;;;7.60;91.80;;;;;;4913942;29;20040;-73
2024/02/29 08:33:35;;;;;;;2.47;1.38;;;7.70;91.80;;;;;;4913348;29;20048;-74
2024/02/29 08:36:04;;;;;;;2.17;1.30;;;7.70;91.80;;;;;;4913529;29;20040;-73
2024/02/29 08:38:30;;;;;;;3.22;1.17;;;7.70;91.80;;;;;;4920681;29;20094;-73
2024/02/29 08:40:56;;;;;;;3.85;1.70;;;7.70;91.80;;;;;;4955140;29;20054;-73
2024/02/29 08:43:22;;;;;;;3.75;1.80;;;7.80;91.80;;;;;;4938623;29;20051;-73
2024/02/29 08:45:47;;;;;;;3.42;1.70;;;7.80;91.70;;;;;;4947549;28;20051;-73
2024/02/29 08:48:13;;;;;;;3.10;1.55;;;7.80;91.70;;;;;;5018042;28;20188;-74
2024/02/29 08:50:39;;;;;;;2.47;1.35;;;7.80;91.70;;;;;;5036142;28;20071;-74
2024/02/29 08:53:05;;;;;;;2.67;1.50;;;7.90;91.80;;;;;;5055762;28;20499;-74
2024/02/29 08:55:31;;;;;;;2.13;1.17;;;7.90;91.70;;;;;;5077308;28;20596;-74
2024/02/29 08:57:57;;;;;;;3.38;1.60;;;8.00;91.80;;;;;;5077611;28;20036;-73
2024/02/29 09:00:23;;;;;;;2.58;1.38;;;8.00;91.70;;;;;;5043446;28;20040;-73
2024/02/29 09:02:48;;;;;;;2.25;1.20;;;8.00;91.70;;;;;;5076777;28;20048;-73
2024/02/29 09:05:15;;;;;;;2.80;1.40;;;8.00;91.70;;;;;;5076816;28;20421;-72
2024/02/29 09:07:40;;;;;;;3.08;1.60;;;8.10;91.70;;;;;;5076692;28;20068;-73
2024/02/29 09:10:09;;;;;;;3.30;1.55;;;8.10;91.70;;;;;;5059480;28;20039;-73
2024/02/29 09:12:35;;;;;;;4.25;1.83;;;8.10;91.70;;;;;;5059945;28;20131;-73
2024/02/29 09:15:02;;;;;;;3.30;1.75;;;8.10;91.60;;;;;;5019191;28;20039;-73
2024/02/29 09:17:28;;;;;;;3.92;1.70;;;8.10;91.80;;;;;;5035495;28;20041;-72
2024/02/29 09:19:54;;;;;;;2.95;1.60;;;8.20;91.60;;;;;;5052179;28;20159;-72
2024/02/29 09:22:19;;;;;;;2.72;1.52;;;8.30;91.60;;;;;;5019612;28;20045;-73
2024/02/29 09:24:45;;;;;;;2.60;1.50;;;8.20;91.60;;;;;;5035805;28;20049;-73
2024/02/29 09:27:11;;;;;;;3.60;1.60;;;8.30;91.60;;;;;;5019021;28;20075;-73
2024/02/29 09:29:37;;;;;;;3.88;1.73;;;8.30;91.60;;;;;;5018972;28;20033;-73
2024/02/29 09:32:05;;;;;;;2.88;1.65;;;8.40;91.60;;;;;;5019634;28;20060;-73
2024/02/29 09:34:31;;;;;;;2.78;1.50;;;8.40;91.60;;;;;;5034334;28;20037;-72
2024/02/29 09:36:57;;;;;;;4.03;1.90;;;8.40;91.60;;;;;;5002584;28;20108;-73
2024/02/29 09:39:22;;;;;;;4.43;1.77;;;8.40;91.60;;;;;;5035334;28;20041;-73
2024/02/29 09:41:50;;;;;;;3.08;1.65;;;8.50;91.60;;;;;;5000343;28;20044;-73
2024/02/29 09:44:17;;;;;;;2.05;1.25;;;8.50;91.60;;;;;;5017026;28;20076;-73
2024/02/29 09:46:46;;;;;;;2.95;1.50;;;8.60;91.60;;;;;;5034860;28;20044;-73
2024/02/29 09:49:13;;;;;;;2.88;1.58;;;8.60;91.50;;;;;;5094013;28;20052;-73
2024/02/29 09:51:41;;;;;;;3.03;1.60;;;8.60;91.50;;;;;;5042677;28;20048;-72
2024/02/29 09:54:08;;;;;;;3.55;1.70;;;8.70;91.50;;;;;;5075693;28;20449;-72
2024/02/29 09:56:34;;;;;;;3.47;1.70;;;8.70;91.40;;;;;;5059301;28;20114;-73
2024/02/29 09:59:00;;;;;;;2.10;1.33;;;8.90;91.80;;;;;;5075853;28;20038;-72
2024/02/29 10:01:27;;;;;;;2.40;1.35;;;8.80;91.40;;;;;;5093892;28;20128;-74
2024/02/29 10:03:55;;;;;;;2.35;1.38;;;8.80;91.40;;;;;;5094063;28;20046;-74
2024/02/29 10:06:21;;;;;;;2.72;1.35;;;8.90;91.40;;;;;;5094098;28;20106;-73
2024/02/29 10:08:47;;;;;;;2.45;1.30;;;8.90;91.40;;;;;;5094193;28;20040;-74
2024/02/29 10:11:12;;;;;;;4.57;1.77;;;9.00;91.30;;;;;;5058860;28;20036;-74
2024/02/29 10:13:40;;;;;;;2.95;1.33;;;9.00;91.30;;;;;;5093730;28;20036;-74
2024/02/29 10:16:10;;;;;;;2.83;1.55;;;9.00;91.30;;;;;;5075416;28;20036;-74
2024/02/29 10:18:38;;;;;;;3.42;1.60;;;9.00;91.30;;;;;;5075867;28;20028;-74
2024/02/29 10:21:13;;;;;;;3.30;1.60;;;9.10;91.30;;;;;;5075734;28;20028;-75
2024/02/29 10:23:39;;;;;;;2.67;1.42;;;9.10;91.30;;;;;;5075742;28;20063;-75
2024/02/29 10:26:05;;;;;;;2.30;1.40;;;9.10;91.30;;;;;;5076163;28;20043;-74
2024/02/29 10:28:31;;;;;;;3.90;1.52;;;9.10;91.30;;;;;;5058656;28;20090;-74
2024/02/29 10:31:01;;;;;;;3.28;1.55;;;9.10;91.30;;;;;;5093626;28;20044;-74
2024/02/29 10:33:28;;;;;;;4.22;1.80;;;9.10;91.30;;;;;;5074007;28;20124;-75
2024/02/29 10:35:54;;;;;;;2.92;1.50;;;9.20;91.30;;;;;;5075443;28;20116;-74
2024/02/29 10:38:22;;;;;;;2.90;1.52;;;9.20;91.30;;;;;;5075067;28;20086;-74
2024/02/29 10:40:50;;;;;;;3.28;1.60;;;9.20;91.40;;;;;;5075220;28;20035;-74
2024/02/29 10:43:19;;;;;;;3.45;1.70;;;9.30;91.30;;;;;;5075315;28;20528;-75
2024/02/29 10:45:47;;;;;;;2.08;1.17;;;9.30;91.30;;;;;;5075239;28;20122;-74
2024/02/29 10:48:37;;;;;;;3.92;1.80;;;9.30;91.30;;;;;;5057255;28;20048;-74
2024/02/29 10:51:11;;;;;;;3.20;1.50;;;9.30;91.30;;;;;;5061450;28;20048;-74
2024/02/29 10:53:53;;;;;;;3.42;1.60;;;9.30;91.20;;;;;;5093434;28;20305;-75
2024/02/29 10:56:22;;;;;;;2.75;1.27;;;9.30;91.30;;;;;;5092571;28;20040;-74
2024/02/29 10:59:02;;;;;;;2.20;1.38;;;9.30;91.30;;;;;;5074140;28;20055;-75
2024/02/29 11:01:30;;;;;;;2.17;1.30;;;9.40;91.30;;;;;;5071917;28;20489;-75
2024/02/29 11:03:56;;;;;;;3.03;1.42;;;9.40;91.20;;;;;;5074916;28;20054;-74
2024/02/29 11:06:23;;;;;;;2.90;1.45;;;9.50;91.30;;;;;;5092932;28;20423;-75
2024/02/29 11:08:50;;;;;;;2.00;1.17;;;9.50;91.20;;;;;;5073998;28;20040;-74
2024/02/29 11:11:21;;;;;;;2.05;1.30;;;9.50;91.20;;;;;;5074458;28;20040;-75
2024/02/29 11:13:46;;;;;;;2.22;1.15;;;9.50;91.20;;;;;;5073383;28;20049;-74
2024/02/29 11:16:16;;;;;;;3.38;1.20;;;9.50;91.20;;;;;;5074728;28;20044;-74
2024/02/29 11:18:43;;;;;;;1.95;1.23;;;9.50;91.20;;;;;;5075075;28;20089;-73
2024/02/29 11:21:08;;;;;;;2.28;1.40;;;9.50;91.20;;;;;;5074681;28;20044;-74
2024/02/29 11:23:35;;;;;;;2.63;1.60;;;9.50;91.30;;;;;;5074802;28;20397;-72
2024/02/29 11:26:02;;;;;;;2.47;1.35;;;9.50;91.30;;;;;;5092524;28;20052;-73
2024/02/29 11:28:41;;;;;;;2.45;1.50;;;9.60;91.30;;;;;;5092315;28;20060;-73
2024/02/29 11:31:22;;;;;;;1.30;1.13;;;9.60;91.30;;;;;;5092299;28;20044;-74
2024/02/29 11:33:48;;;;;;;2.50;1.40;;;9.60;91.20;;;;;;5074224;28;20063;-74
2024/02/29 11:36:14;;;;;;;2.60;1.30;;;9.60;91.20;;;;;;5072485;28;20378;-73
2024/02/29 11:38:40;;;;;;;2.83;1.40;;;9.60;91.20;;;;;;5074124;28;20036;-73
2024/02/29 11:41:17;;;;;;;2.67;1.45;;;9.60;91.30;;;;;;5073993;28;20216;-73
2024/02/29 11:43:44;;;;;;;2.45;1.42;;;9.60;91.20;;;;;;5092370;28;20481;-73
2024/02/29 11:46:10;;;;;;;2.80;1.55;;;9.60;91.20;;;;;;5092744;28;20067;-74
2024/02/29 11:48:38;;;;;;;3.05;1.40;;;9.60;91.20;;;;;;5074063;28;20039;-74
2024/02/29 11:51:23;;;;;;;2.00;1.23;;;9.60;91.30;;;;;;5039906;28;20044;-74
2024/02/29 11:53:53;;;;;;;2.13;1.40;;;9.60;91.30;;;;;;5075022;28;20045;-75
2024/02/29 11:56:19;;;;;;;2.78;1.45;;;9.60;91.20;;;;;;5072745;28;20048;-74
2024/02/29 11:58:48;;;;;;;3.47;1.80;;;9.60;91.20;;;;;;5073730;28;20102;-76
2024/02/29 12:01:14;;;;;;;2.63;1.50;;;9.70;91.20;;;;;;5017001;28;20219;-74
2024/02/29 12:03:46;;;;;;;2.35;1.10;;;9.70;91.20;;;;;;5017221;28;20052;-75
2024/02/29 12:06:12;;;;;;;2.92;1.20;;;9.70;91.20;;;;;;5000398;28;20067;-75
2024/02/29 12:09:10;;;;;;;2.50;1.30;;;9.80;91.20;;;;;;5033207;28;20072;-75
2024/02/29 12:11:37;;;;;;;1.90;1.17;;;9.80;91.20;;;;;;4996302;28;20081;-75
2024/02/29 12:14:10;;;;;;;2.58;1.42;;;9.90;91.20;;;;;;4996295;28;20526;-75
2024/02/29 12:16:45;;;;;;;1.35;1.00;;;9.80;91.20;;;;;;4965095;28;20050;-75
2024/02/29 12:19:14;;;;;;;1.77;1.08;;;9.90;91.30;;;;;;4981099;28;20050;-75
2024/02/29 12:21:49;;;;;;;1.67;1.10;;;9.80;91.20;;;;;;4997161;28;20065;-76
2024/02/29 12:24:26;;;;;;;1.48;0.90;;;9.80;91.20;;;;;;4993642;28;20046;-75
2024/02/29 12:26:55;;;;;;;1.88;1.17;;;9.90;91.30;;;;;;4976589;28;20047;-74
2024/02/29 12:29:23;;;;;;;1.52;1.05;;;9.80;91.20;;;;;;4977831;28;20053;-74
2024/02/29 12:31:51;;;;;;;1.45;0.95;;;9.80;91.30;;;;;;4983547;28;20041;-75
2024/02/29 12:34:17;;;;;;;1.45;1.00;;;10.00;91.30;;;;;;5013488;28;20046;-74
2024/02/29 12:36:46;;;;;;;2.17;1.20;;;9.90;91.30;;;;;;5013512;28;20053;-76
2024/02/29 12:39:18;;;;;;;2.47;1.45;;;9.90;91.30;;;;;;5013146;28;20559;-74
2024/02/29 12:41:44;;;;;;;1.63;1.23;;;9.90;91.30;;;;;;5020291;28;20068;-74
2024/02/29 12:44:10;;;;;;;1.80;1.27;;;9.90;91.30;;;;;;5072669;28;20099;-74
2024/02/29 12:46:36;;;;;;;2.80;1.30;;;9.90;91.30;;;;;;5072809;28;20085;-74
2024/02/29 12:49:03;;;;;;;1.98;1.30;;;9.90;91.40;;;;;;5055776;28;20063;-74
2024/02/29 12:51:29;;;;;;;2.10;1.20;;;9.90;91.40;;;;;;5072610;28;20385;-74
2024/02/29 12:53:55;;;;;;;1.23;0.90;;;9.90;91.40;;;;;;5072437;28;20101;-75
2024/02/29 12:56:21;;;;;;;1.98;1.10;;;9.90;91.40;;;;;;5074743;28;20105;-74